createdAt,value
2022-07-26T00:00:22.601Z,14.87
2022-07-26T00:02:54.675Z,13.90
2022-07-26T00:05:23.399Z,14.63
2022-07-26T00:08:10.699Z,15.53
2022-07-26T00:10:42.462Z,14.70
2022-07-26T00:13:12.476Z,14.60
2022-07-26T00:15:41.233Z,14.27
2022-07-26T00:18:12.641Z,14.93
2022-07-26T00:20:42.268Z,14.63
2022-07-26T00:23:11.682Z,17.13
2022-07-26T00:25:40.731Z,15.07
2022-07-26T00:28:13.367Z,14.43
2022-07-26T00:30:42.430Z,14.87
2022-07-26T00:33:13.451Z,14.43
2022-07-26T00:35:42.421Z,14.30
2022-07-26T00:38:11.315Z,14.50
2022-07-26T00:40:39.904Z,15.67
2022-07-26T00:43:09.383Z,13.87
2022-07-26T00:45:37.947Z,16.27
2022-07-26T00:48:07.978Z,15.07
2022-07-26T00:50:38.055Z,14.93
2022-07-26T00:53:07.453Z,14.90
2022-07-26T00:55:36.177Z,15.77
2022-07-26T00:58:06.508Z,14.93
2022-07-26T01:00:35.158Z,13.73
2022-07-26T01:03:04.046Z,14.90
2022-07-26T01:05:34.079Z,15.63
2022-07-26T01:08:04.302Z,14.60
2022-07-26T01:10:33.144Z,15.63
2022-07-26T01:13:02.038Z,15.40
2022-07-26T01:15:30.562Z,16.40
2022-07-26T01:17:59.046Z,14.57
2022-07-26T01:20:27.636Z,14.73
2022-07-26T01:22:57.586Z,18.07
2022-07-26T01:25:43.526Z,16.53
2022-07-26T01:28:19.649Z,14.97
2022-07-26T01:31:14.259Z,16.33
2022-07-26T01:33:43.208Z,16.43
2022-07-26T01:36:12.474Z,16.23
2022-07-26T01:39:02.767Z,15.17
2022-07-26T01:41:38.349Z,15.40
2022-07-26T01:44:08.564Z,16.00
2022-07-26T01:46:37.969Z,15.47
2022-07-26T01:49:09.224Z,15.93
2022-07-26T01:51:38.128Z,15.30
2022-07-26T01:54:10.827Z,16.57
2022-07-26T01:56:39.703Z,16.30
2022-07-26T01:59:34.387Z,14.07
2022-07-26T02:02:04.089Z,15.13
2022-07-26T02:04:51.067Z,15.37
2022-07-26T02:07:20.070Z,17.17
2022-07-26T02:09:50.180Z,15.47
2022-07-26T02:12:18.778Z,15.20
2022-07-26T02:14:47.304Z,16.30
2022-07-26T02:17:16.077Z,16.97
2022-07-26T02:19:45.079Z,16.03
2022-07-26T02:22:13.825Z,14.87
2022-07-26T02:24:42.482Z,16.27
2022-07-26T02:27:12.397Z,16.87
2022-07-26T02:29:41.087Z,15.53
2022-07-26T02:32:11.118Z,14.97
2022-07-26T02:34:39.700Z,17.23
2022-07-26T02:37:08.649Z,16.10
2022-07-26T02:39:37.387Z,16.37
2022-07-26T02:42:06.188Z,15.47
2022-07-26T02:44:57.692Z,15.73
2022-07-26T02:47:26.273Z,16.50
2022-07-26T02:49:54.784Z,15.17
2022-07-26T02:52:23.324Z,15.80
2022-07-26T02:54:51.953Z,16.30
2022-07-26T02:57:20.490Z,16.03
2022-07-26T02:59:48.998Z,16.57
2022-07-26T03:02:18.904Z,15.83
2022-07-26T03:04:47.388Z,15.57
2022-07-26T03:07:15.882Z,15.50
2022-07-26T03:09:44.478Z,16.13
2022-07-26T03:12:13.137Z,16.47
2022-07-26T03:14:41.596Z,16.83
2022-07-26T03:17:10.170Z,16.00
2022-07-26T03:19:49.288Z,15.27
2022-07-26T03:22:18.033Z,15.53
2022-07-26T03:24:46.557Z,15.77
2022-07-26T03:27:15.646Z,16.63
2022-07-26T03:29:44.210Z,17.37
2022-07-26T03:32:13.143Z,16.67
2022-07-26T03:34:43.806Z,15.77
2022-07-26T03:37:12.419Z,15.67
2022-07-26T03:40:16.176Z,15.50
2022-07-26T03:42:45.314Z,15.13
2022-07-26T03:45:44.637Z,16.10
2022-07-26T03:48:13.274Z,15.20
2022-07-26T03:50:43.389Z,16.20
2022-07-26T03:53:12.102Z,16.50
2022-07-26T03:55:58.421Z,15.70
2022-07-26T03:58:26.954Z,15.63
2022-07-26T04:00:55.718Z,15.77
2022-07-26T04:03:25.424Z,16.83
2022-07-26T04:05:56.085Z,16.60
2022-07-26T04:08:24.714Z,16.27
2022-07-26T04:10:53.367Z,14.93
2022-07-26T04:13:24.007Z,16.17
2022-07-26T04:15:52.718Z,15.93
2022-07-26T04:18:21.802Z,16.10
2022-07-26T04:20:54.693Z,15.53
2022-07-26T04:23:23.433Z,15.87
2022-07-26T04:25:52.129Z,15.43
2022-07-26T04:28:20.937Z,15.83
2022-07-26T04:30:49.537Z,16.30
2022-07-26T04:33:18.475Z,16.37
2022-07-26T04:35:47.263Z,15.40
2022-07-26T04:38:17.791Z,16.40
2022-07-26T04:40:46.523Z,15.13
2022-07-26T04:43:16.198Z,16.67
2022-07-26T04:45:46.142Z,15.67
2022-07-26T04:48:15.725Z,15.60
2022-07-26T04:50:45.676Z,15.20
2022-07-26T04:53:16.234Z,15.50
2022-07-26T04:55:45.140Z,15.67
2022-07-26T04:58:14.041Z,16.03
2022-07-26T05:01:08.506Z,15.53
2022-07-26T05:03:31.397Z,15.27
2022-07-26T05:05:59.969Z,15.40
2022-07-26T05:08:30.012Z,13.67
2022-07-26T05:10:58.534Z,14.27
2022-07-26T05:13:30.725Z,15.80
2022-07-26T05:16:01.650Z,15.53
2022-07-26T05:18:45.558Z,17.50
2022-07-26T05:21:17.798Z,15.53
2022-07-26T05:23:48.142Z,13.27
2022-07-26T05:26:16.875Z,14.30
2022-07-26T05:28:45.524Z,14.97
2022-07-26T05:31:14.126Z,13.77
2022-07-26T05:33:42.896Z,13.33
2022-07-26T05:36:11.708Z,13.53
2022-07-26T05:38:40.508Z,14.10
2022-07-26T05:41:10.852Z,14.57
2022-07-26T05:43:41.610Z,14.53
2022-07-26T05:46:12.593Z,16.07
2022-07-26T05:48:41.818Z,14.37
2022-07-26T05:51:10.801Z,14.73
2022-07-26T05:53:40.109Z,14.67
2022-07-26T05:56:10.379Z,14.90
2022-07-26T05:58:38.997Z,17.03
2022-07-26T06:01:07.863Z,16.03
2022-07-26T06:03:36.509Z,14.57
2022-07-26T06:06:05.269Z,18.67
2022-07-26T06:08:34.530Z,15.10
2022-07-26T06:11:03.189Z,15.00
2022-07-26T06:13:33.083Z,14.17
2022-07-26T06:16:02.879Z,30.67
2022-07-26T06:18:31.409Z,14.70
2022-07-26T06:21:02.439Z,19.27
2022-07-26T06:23:56.225Z,17.00
2022-07-26T06:26:25.269Z,20.20
2022-07-26T06:28:55.495Z,25.70
2022-07-26T06:31:24.435Z,21.67
2022-07-26T06:33:53.136Z,25.17
2022-07-26T06:36:22.948Z,18.00
2022-07-26T06:38:55.016Z,14.67
2022-07-26T06:41:23.534Z,19.40
2022-07-26T06:43:51.992Z,23.13
2022-07-26T06:46:22.838Z,16.17
2022-07-26T06:48:53.032Z,16.03
2022-07-26T06:51:25.602Z,20.77
2022-07-26T06:53:54.211Z,15.80
2022-07-26T06:56:22.693Z,17.90
2022-07-26T06:58:55.284Z,16.90
2022-07-26T07:01:58.272Z,16.57
2022-07-26T07:04:13.739Z,15.77
2022-07-26T07:06:42.546Z,19.43
2022-07-26T07:09:13.569Z,17.20
2022-07-26T07:11:44.902Z,16.53
2022-07-26T07:14:13.689Z,16.80
2022-07-26T07:16:43.655Z,19.07
2022-07-26T07:19:25.059Z,16.97
2022-07-26T07:21:53.903Z,17.57
2022-07-26T07:24:23.539Z,16.77
2022-07-26T07:26:52.220Z,16.97
2022-07-26T07:29:21.288Z,15.50
2022-07-26T07:31:51.709Z,16.47
2022-07-26T07:34:37.016Z,18.90
2022-07-26T07:37:05.784Z,15.97
2022-07-26T07:39:42.154Z,16.90
2022-07-26T07:42:15.730Z,16.70
2022-07-26T07:44:45.027Z,18.13
2022-07-26T07:47:15.512Z,18.42
2022-07-26T07:49:44.362Z,18.53
2022-07-26T07:52:12.862Z,16.93
2022-07-26T07:54:42.224Z,16.77
2022-07-26T07:57:11.477Z,17.50
2022-07-26T07:59:42.783Z,17.10
2022-07-26T08:02:12.846Z,16.92
2022-07-26T08:04:42.945Z,17.53
2022-07-26T08:07:13.592Z,17.03
2022-07-26T08:09:43.390Z,15.83
2022-07-26T08:12:12.391Z,15.13
2022-07-26T08:14:41.579Z,24.90
2022-07-26T08:17:10.319Z,17.17
2022-07-26T08:19:41.981Z,15.68
2022-07-26T08:22:12.710Z,17.77
2022-07-26T08:24:41.955Z,15.98
2022-07-26T08:27:10.469Z,15.77
2022-07-26T08:29:39.042Z,16.80
2022-07-26T08:32:32.762Z,15.73
2022-07-26T08:35:16.806Z,15.20
2022-07-26T08:37:47.974Z,19.33
2022-07-26T08:40:16.703Z,15.13
2022-07-26T08:42:52.745Z,16.08
2022-07-26T08:45:25.021Z,15.68
2022-07-26T08:48:16.667Z,16.13
2022-07-26T08:50:43.332Z,14.00
2022-07-26T08:53:14.411Z,15.43
2022-07-26T08:56:06.534Z,17.00
2022-07-26T08:58:36.319Z,18.83
2022-07-26T09:01:12.865Z,14.57
2022-07-26T09:03:43.142Z,15.32
2022-07-26T09:06:17.778Z,14.07
2022-07-26T09:08:50.005Z,19.25
2022-07-26T09:11:33.492Z,16.17
2022-07-26T09:14:04.545Z,15.52
2022-07-26T09:16:39.186Z,14.68
2022-07-26T09:19:19.317Z,14.48
2022-07-26T09:21:47.928Z,17.40
2022-07-26T09:24:33.440Z,14.75
2022-07-26T09:27:04.237Z,17.80
2022-07-26T09:29:43.834Z,14.88
2022-07-26T09:32:18.378Z,14.35
2022-07-26T09:34:53.733Z,15.82
2022-07-26T09:37:36.623Z,14.65
2022-07-26T09:40:10.048Z,14.90
2022-07-26T09:42:39.646Z,15.40
2022-07-26T09:45:18.586Z,13.93
2022-07-26T09:47:47.131Z,15.75
2022-07-26T09:50:18.870Z,13.75
2022-07-26T09:53:08.575Z,13.90
2022-07-26T09:55:56.950Z,16.50
2022-07-26T09:58:26.665Z,13.32
2022-07-26T10:01:00.460Z,12.88
2022-07-26T10:03:32.158Z,13.50
2022-07-26T10:06:02.356Z,12.90
2022-07-26T10:08:32.504Z,14.98
2022-07-26T10:11:09.429Z,13.32
2022-07-26T10:13:38.780Z,17.92
2022-07-26T10:16:08.078Z,12.55
2022-07-26T10:18:47.465Z,12.95
2022-07-26T10:21:27.722Z,13.35
2022-07-26T10:23:58.819Z,13.60
2022-07-26T10:26:45.521Z,12.25
2022-07-26T10:29:29.503Z,12.00
2022-07-26T10:32:20.345Z,12.05
2022-07-26T10:34:49.574Z,12.38
2022-07-26T10:37:29.751Z,13.27
2022-07-26T10:40:25.687Z,15.05
2022-07-26T10:43:39.700Z,12.52
2022-07-26T10:46:25.128Z,14.15
2022-07-26T10:48:58.489Z,12.30
2022-07-26T10:51:29.647Z,13.10
2022-07-26T10:54:02.715Z,12.88
2022-07-26T10:56:33.601Z,11.05
2022-07-26T10:59:04.499Z,11.25
2022-07-26T11:01:40.795Z,15.40
2022-07-26T11:04:20.543Z,12.75
2022-07-26T11:06:50.044Z,11.85
2022-07-26T11:09:21.046Z,12.82
2022-07-26T11:11:52.516Z,12.35
2022-07-26T11:14:22.551Z,10.82
2022-07-26T11:16:51.893Z,11.25
2022-07-26T11:19:22.348Z,10.52
2022-07-26T11:21:57.177Z,9.95
2022-07-26T11:24:26.856Z,10.38
2022-07-26T11:26:56.636Z,10.20
2022-07-26T11:29:38.216Z,10.07
2022-07-26T11:32:18.540Z,10.88
2022-07-26T11:34:48.817Z,9.63
2022-07-26T11:37:17.366Z,10.10
2022-07-26T11:39:48.125Z,9.20
2022-07-26T11:42:19.749Z,10.35
2022-07-26T11:44:51.342Z,11.68
2022-07-26T11:47:24.184Z,13.15
2022-07-26T11:52:44.465Z,9.52
2022-07-26T11:55:12.994Z,8.57
2022-07-26T11:57:41.813Z,9.23
2022-07-26T12:00:14.400Z,9.57
2022-07-26T12:02:43.193Z,9.73
2022-07-26T12:05:18.696Z,8.63
2022-07-26T12:08:03.025Z,10.40
2022-07-26T12:10:31.931Z,10.35
2022-07-26T12:13:12.759Z,9.32
2022-07-26T12:16:07.964Z,8.15
2022-07-26T12:18:36.726Z,8.88
2022-07-26T12:21:09.330Z,9.45
2022-07-26T12:23:48.164Z,9.35
2022-07-26T12:26:22.684Z,33.72
2022-07-26T12:28:51.355Z,8.82
2022-07-26T12:31:30.462Z,13.68
2022-07-26T12:34:00.015Z,12.68
2022-07-26T12:36:30.169Z,11.23
2022-07-26T12:39:01.170Z,9.40
2022-07-26T12:41:38.384Z,9.00
2022-07-26T12:44:08.554Z,9.27
2022-07-26T12:46:39.075Z,9.55
2022-07-26T12:49:07.665Z,9.32
2022-07-26T12:51:41.380Z,8.70
2022-07-26T12:54:10.546Z,8.10
2022-07-26T12:56:39.251Z,8.50
2022-07-26T12:59:07.926Z,9.40
2022-07-26T13:01:36.684Z,9.23
2022-07-26T13:04:06.911Z,9.30
2022-07-26T13:06:35.526Z,9.45
2022-07-26T13:09:04.082Z,11.18
2022-07-26T13:11:33.554Z,10.02
2022-07-26T13:14:02.579Z,10.48
2022-07-26T13:16:31.089Z,11.68
2022-07-26T13:18:59.692Z,11.88
2022-07-26T13:21:33.556Z,12.48
2022-07-26T13:24:02.725Z,10.00
2022-07-26T13:26:31.214Z,10.90
2022-07-26T13:28:59.892Z,11.60
2022-07-26T13:31:28.615Z,10.30
2022-07-26T13:33:57.159Z,10.85
2022-07-26T13:36:25.719Z,9.35
2022-07-26T13:38:55.931Z,10.32
2022-07-26T13:41:24.575Z,10.27
2022-07-26T13:43:54.141Z,9.45
2022-07-26T13:46:23.933Z,20.83
2022-07-26T13:49:00.456Z,9.77
2022-07-26T13:51:49.761Z,11.35
2022-07-26T13:54:22.079Z,9.60
2022-07-26T13:56:51.383Z,9.27
2022-07-26T13:59:20.573Z,9.55
2022-07-26T14:01:49.146Z,9.20
2022-07-26T14:04:18.086Z,9.35
2022-07-26T14:06:46.866Z,9.55
2022-07-26T14:09:16.530Z,9.50
2022-07-26T14:11:46.905Z,8.90
2022-07-26T14:14:15.828Z,9.85
2022-07-26T14:16:48.043Z,8.93
2022-07-26T14:19:18.099Z,8.93
2022-07-26T14:21:58.863Z,9.38
2022-07-26T14:24:29.252Z,9.52
2022-07-26T14:27:00.243Z,9.55
2022-07-26T14:29:31.576Z,9.38
2022-07-26T14:32:21.339Z,9.48
2022-07-26T14:34:50.904Z,9.30
2022-07-26T14:37:44.192Z,9.20
2022-07-26T14:40:09.916Z,8.88
2022-07-26T14:42:39.880Z,9.35
2022-07-26T14:45:11.291Z,8.80
2022-07-26T14:47:40.083Z,9.13
2022-07-26T14:50:53.034Z,8.85
2022-07-26T14:53:22.593Z,16.15
2022-07-26T14:55:51.124Z,9.20
2022-07-26T14:58:21.156Z,9.55
2022-07-26T15:00:52.124Z,9.38
2022-07-26T15:03:20.707Z,9.00
2022-07-26T15:05:49.226Z,9.48
2022-07-26T15:08:17.731Z,9.15
2022-07-26T15:10:46.415Z,11.95
2022-07-26T15:13:17.330Z,9.45
2022-07-26T15:15:47.587Z,9.02
2022-07-26T15:18:16.036Z,9.00
2022-07-26T15:20:44.674Z,9.25
2022-07-26T15:23:35.672Z,10.07
2022-07-26T15:26:04.316Z,10.10
2022-07-26T15:28:35.283Z,9.68
2022-07-26T15:31:05.290Z,9.30
2022-07-26T15:33:35.373Z,10.07
2022-07-26T15:36:06.107Z,9.77
2022-07-26T15:38:34.757Z,10.18
2022-07-26T15:41:03.337Z,9.10
2022-07-26T15:43:48.120Z,9.65
2022-07-26T15:46:31.077Z,9.25
2022-07-26T15:49:00.258Z,9.80
2022-07-26T15:51:29.123Z,10.00
2022-07-26T15:53:57.683Z,9.88
2022-07-26T15:56:26.193Z,9.43
2022-07-26T15:58:54.717Z,8.90
2022-07-26T16:01:23.500Z,8.60
2022-07-26T16:03:53.416Z,9.68
2022-07-26T16:06:23.140Z,8.93
2022-07-26T16:09:15.313Z,9.90
2022-07-26T16:11:40.204Z,9.18
2022-07-26T16:14:09.735Z,9.75
2022-07-26T16:16:38.362Z,9.20
2022-07-26T16:19:08.619Z,9.20
2022-07-26T16:21:37.912Z,10.60
2022-07-26T16:24:07.810Z,9.43
2022-07-26T16:26:36.961Z,9.13
2022-07-26T16:29:06.054Z,9.65
2022-07-26T16:31:34.855Z,9.18
2022-07-26T16:34:03.695Z,8.93
2022-07-26T16:36:34.310Z,9.70
2022-07-26T16:39:02.922Z,10.75
2022-07-26T16:41:32.010Z,10.70
2022-07-26T16:44:00.600Z,10.25
2022-07-26T16:46:29.188Z,13.70
2022-07-26T16:48:57.809Z,10.35
2022-07-26T16:51:27.189Z,11.77
2022-07-26T16:53:57.085Z,17.52
2022-07-26T16:56:25.613Z,18.13
2022-07-26T16:58:54.173Z,14.18
2022-07-26T17:01:22.753Z,10.73
2022-07-26T17:03:51.425Z,12.90
2022-07-26T17:06:20.092Z,11.38
2022-07-26T17:08:48.609Z,10.60
2022-07-26T17:11:18.529Z,11.70
2022-07-26T17:13:47.083Z,10.63
2022-07-26T17:16:15.712Z,11.43
2022-07-26T17:18:53.474Z,11.13
2022-07-26T17:21:22.236Z,11.48
2022-07-26T17:23:51.505Z,12.98
2022-07-26T17:26:22.096Z,13.43
2022-07-26T17:28:50.577Z,11.23
2022-07-26T17:31:19.164Z,12.95
2022-07-26T17:33:47.753Z,12.60
2022-07-26T17:36:43.018Z,11.45
2022-07-26T17:39:14.916Z,13.80
2022-07-26T17:41:49.562Z,15.15
2022-07-26T17:44:18.279Z,11.45
2022-07-26T17:46:46.793Z,11.57
2022-07-26T17:49:16.105Z,14.13
2022-07-26T17:51:45.959Z,12.02
2022-07-26T17:54:14.459Z,13.10
2022-07-26T17:56:42.937Z,14.10
2022-07-26T17:59:14.233Z,12.32
2022-07-26T18:01:53.828Z,10.98
2022-07-26T18:04:56.901Z,14.73
2022-07-26T18:07:25.678Z,12.00
2022-07-26T18:09:57.795Z,12.20
2022-07-26T18:12:26.362Z,11.83
2022-07-26T18:15:01.230Z,11.13
2022-07-26T18:17:29.709Z,11.53
2022-07-26T18:19:58.200Z,11.47
2022-07-26T18:22:27.330Z,12.20
2022-07-26T18:24:55.870Z,11.60
2022-07-26T18:27:28.186Z,12.13
2022-07-26T18:29:57.831Z,11.77
2022-07-26T18:32:28.262Z,13.97
2022-07-26T18:34:56.839Z,11.40
2022-07-26T18:37:25.701Z,11.27
2022-07-26T18:39:57.776Z,10.90
2022-07-26T18:42:27.466Z,11.97
2022-07-26T18:44:56.022Z,11.17
2022-07-26T18:47:24.774Z,11.00
2022-07-26T18:49:54.795Z,11.63
2022-07-26T18:52:28.576Z,12.43
2022-07-26T18:55:07.259Z,11.57
2022-07-26T18:57:36.647Z,10.90
2022-07-26T19:00:08.067Z,11.13
2022-07-26T19:02:36.737Z,12.23
2022-07-26T19:05:07.762Z,12.07
2022-07-26T19:07:37.600Z,10.30
2022-07-26T19:10:08.373Z,10.80
2022-07-26T19:12:58.698Z,12.03
2022-07-26T19:15:27.519Z,10.47
2022-07-26T19:17:56.081Z,11.07
2022-07-26T19:20:26.034Z,14.00
2022-07-26T19:22:54.611Z,10.97
2022-07-26T19:25:23.154Z,13.53
2022-07-26T19:27:51.849Z,10.73
2022-07-26T19:30:20.303Z,10.23
2022-07-26T19:32:48.957Z,11.60
2022-07-26T19:35:17.492Z,10.70
2022-07-26T19:37:47.661Z,11.07
2022-07-26T19:40:16.425Z,13.77
2022-07-26T19:42:45.070Z,10.23
2022-07-26T19:45:14.136Z,10.37
2022-07-26T19:47:42.805Z,11.47
2022-07-26T19:50:12.050Z,10.63
2022-07-26T19:52:41.305Z,10.67
2022-07-26T19:55:11.657Z,9.57
2022-07-26T19:57:40.456Z,9.90
2022-07-26T20:00:12.253Z,10.30
2022-07-26T20:02:41.647Z,9.30
2022-07-26T20:05:11.778Z,8.93
2022-07-26T20:07:40.589Z,10.20
2022-07-26T20:10:11.155Z,10.10
2022-07-26T20:12:39.705Z,10.67
2022-07-26T20:15:09.610Z,11.07
2022-07-26T20:17:39.829Z,10.03
2022-07-26T20:20:12.030Z,9.67
2022-07-26T20:22:40.508Z,10.03
2022-07-26T20:25:11.203Z,10.10
2022-07-26T20:27:40.022Z,10.07
2022-07-26T20:30:10.664Z,10.63
2022-07-26T20:32:39.169Z,9.90
2022-07-26T20:35:08.789Z,10.03
2022-07-26T20:37:37.683Z,10.07
2022-07-26T20:40:09.312Z,10.40
2022-07-26T20:42:40.412Z,10.13
2022-07-26T20:45:13.000Z,10.23
2022-07-26T20:47:43.067Z,10.27
2022-07-26T20:50:13.202Z,11.03
2022-07-26T20:52:42.011Z,10.63
2022-07-26T20:55:12.197Z,10.17
2022-07-26T20:57:42.612Z,10.70
2022-07-26T21:00:12.989Z,10.20
2022-07-26T21:02:41.826Z,10.30
2022-07-26T21:05:12.014Z,10.83
2022-07-26T21:07:58.638Z,11.63
2022-07-26T21:10:29.142Z,11.57
2022-07-26T21:13:00.941Z,10.80
2022-07-26T21:15:29.779Z,10.60
2022-07-26T21:17:58.681Z,12.03
2022-07-26T21:20:27.300Z,11.60
2022-07-26T21:23:08.140Z,11.30
2022-07-26T21:25:44.540Z,11.30
2022-07-26T21:28:25.333Z,11.23
2022-07-26T21:30:54.212Z,11.60
2022-07-26T21:33:22.796Z,11.90
2022-07-26T21:35:51.318Z,11.40
2022-07-26T21:38:20.109Z,14.33
2022-07-26T21:40:48.757Z,11.50
2022-07-26T21:43:17.342Z,13.10
2022-07-26T21:45:47.265Z,11.43
2022-07-26T21:48:15.786Z,15.30
2022-07-26T21:50:46.518Z,12.40
2022-07-26T21:53:15.197Z,12.60
2022-07-26T21:55:44.087Z,12.63
2022-07-26T21:58:12.730Z,16.77
2022-07-26T22:00:41.379Z,12.37
2022-07-26T22:03:11.872Z,12.90
2022-07-26T22:05:42.614Z,12.17
2022-07-26T22:08:20.310Z,13.23
2022-07-26T22:10:49.152Z,13.93
2022-07-26T22:13:17.969Z,13.80
2022-07-26T22:15:47.846Z,13.03
2022-07-26T22:18:19.708Z,12.97
2022-07-26T22:20:49.846Z,14.23
2022-07-26T22:23:19.822Z,14.53
2022-07-26T22:25:48.296Z,13.23
2022-07-26T22:28:18.456Z,13.70
2022-07-26T22:30:47.739Z,12.83
2022-07-26T22:33:18.571Z,12.33
2022-07-26T22:35:47.324Z,13.00
2022-07-26T22:38:41.195Z,13.57
2022-07-26T22:41:09.786Z,12.87
2022-07-26T22:43:38.377Z,13.33
2022-07-26T22:46:06.930Z,13.53
2022-07-26T22:48:38.694Z,13.47
2022-07-26T22:51:07.908Z,17.33
2022-07-26T22:53:36.525Z,13.53
2022-07-26T22:56:05.301Z,13.13
2022-07-26T22:59:22.690Z,17.47
2022-07-26T23:01:51.248Z,13.03
2022-07-26T23:04:21.198Z,13.87
2022-07-26T23:06:49.940Z,13.00
2022-07-26T23:09:18.466Z,13.23
2022-07-26T23:11:47.173Z,12.50
2022-07-26T23:14:15.667Z,12.97
2022-07-26T23:16:44.344Z,13.10
2022-07-26T23:19:13.269Z,12.50
2022-07-26T23:21:43.622Z,12.80
2022-07-26T23:24:15.981Z,12.27
2022-07-26T23:26:44.628Z,12.47
2022-07-26T23:29:13.589Z,13.83
2022-07-26T23:31:43.469Z,11.83
2022-07-26T23:34:12.183Z,12.07
2022-07-26T23:36:42.340Z,11.43
2022-07-26T23:39:11.289Z,12.10
2022-07-26T23:41:40.647Z,12.27
2022-07-26T23:44:09.133Z,12.57
2022-07-26T23:46:37.932Z,12.30
2022-07-26T23:49:06.705Z,12.27
2022-07-26T23:51:35.383Z,12.73
2022-07-26T23:54:05.771Z,13.40
2022-07-26T23:56:34.462Z,11.97
2022-07-26T23:59:03.030Z,12.27
